Home > Products > Valid Products > MTR

000
SAUS41 KPHI 310856
MTRACY
METAR KACY 310854Z 00000KT 10SM CLR 14/12 A3009 RMK AO2 SLP187
T01390122 51002





000
SAUS41 KPHI 310855
MTR12N
METAR K12N 310854Z AUTO 00000KT 13/12 A3008 RMK AO1 SLP180 T01280122
53002





000
SAUS41 KPHI 310755
MTRACY
METAR KACY 310754Z 00000KT 10SM CLR 14/12 A3008 RMK AO2 SLP186
T01440122





000
SAUS41 KPHI 310755
MTR12N
METAR K12N 310754Z AUTO 00000KT 13/12 A3007 RMK AO1 SLP178 T01280122





000
SAUS41 KPHI 310656
MTRACY
METAR KACY 310654Z 21003KT 10SM CLR 17/14 A3008 RMK AO2 SLP186
T01720139





000
SAUS41 KPHI 310655
MTR12N
METAR K12N 310654Z AUTO 22003KT 13/13 A3007 RMK AO1 SLP178 T01330128





000
SAUS41 KPHI 310557
MTRACY
METAR KACY 310554Z 24004KT 10SM CLR 18/14 A3008 RMK AO2 SLP185
T01780144 10228 20150 53003





000
SAUS41 KPHI 310555
MTR12N
METAR K12N 310554Z AUTO 22004KT 14/13 A3007 RMK AO1 SLP177 T01390133
10200 20133 53002





000
SAUS41 KPHI 310457
MTRACY
METAR KACY 310454Z 00000KT 10SM CLR 17/13 A3007 RMK AO2 SLP182
T01670133 402670150





000
SAUS41 KPHI 310456
MTR12N
METAR K12N 310454Z AUTO 00000KT 14/13 A3006 RMK AO1 SLP175 T01390128
402440094





000
SAUS41 KPHI 310355
MTR12N
METAR K12N 310354Z AUTO 00000KT 14/13 A3006 RMK AO1 SLP174 T01440133





000
SAUS41 KPHI 310355
MTRACY
METAR KACY 310354Z 21004KT 10SM CLR 18/13 A3007 RMK AO2 SLP180
T01780133





000
SAUS41 KPHI 310355
MTR12N
METAR K12N 310354Z AUTO 00000KT 14/13 A3006 RMK AO1 SLP174 T01440133





000
SAUS41 KPHI 310355
MTRACY
METAR KACY 310354Z 21004KT 10SM CLR 18/13 A3007 RMK AO2 SLP180
T01780133





000
SAUS41 KPHI 310255
MTR12N
METAR K12N 310254Z AUTO 00000KT 15/14 A3006 RMK AO1 SLP175 T01500139
51009





000
SAUS41 KPHI 310255
MTRACY
METAR KACY 310254Z 21006KT 10SM CLR 19/14 A3007 RMK AO2 SLP181
T01890139 50009





000
SAUS41 KPHI 310155
MTRACY
METAR KACY 310154Z 22004KT 10SM CLR 19/13 A3007 RMK AO2 SLP182
T01940133





000
SAUS41 KPHI 310155
MTR12N
METAR K12N 310154Z AUTO 00000KT 16/14 A3006 RMK AO1 SLP176 T01560144





000
SAUS41 KPHI 310057
MTRACY
METAR KACY 310054Z 23004KT 10SM CLR 22/13 A3005 RMK AO2 SLP176
T02170133





000
SAUS41 KPHI 310055
MTR12N
METAR K12N 310054Z AUTO 00000KT 17/14 A3005 RMK AO1 SLP174 T01720144





000
SAUS41 KPHI 302355
MTR12N
METAR K12N 302354Z AUTO 00000KT 20/16 A3004 RMK AO1 SLP168 T02000156
10244 20200 53005





000
SAUS41 KPHI 302355
MTRACY
METAR KACY 302354Z 23006KT 10SM CLR 23/12 A3004 RMK AO2 SLP172
T02280122 10267 20228 53006





000
SAUS41 KPHI 302256
MTRACY
METAR KACY 302254Z 23010KT 10SM CLR 24/12 A3003 RMK AO2 SLP168
T02440117





000
SAUS41 KPHI 302255
MTR12N
METAR K12N 302254Z AUTO 22003KT 23/13 A3002 RMK AO1 SLP164 T02280128





000
SAUS41 KPHI 302156
MTRACY
METAR KACY 302154Z 25007KT 10SM CLR 25/11 A3002 RMK AO2 SLP165
T02500106





000
SAUS41 KPHI 302155
MTR12N
METAR K12N 302154Z AUTO 22005KT 23/12 A3002 RMK AO1 SLP161 T02330122





000
SAUS41 KPHI 302056
MTRACY
METAR KACY 302054Z 10SM SCT065 27/10 A3002 RMK AO2 SLP166 T02670100
56003





000
SAUS41 KPHI 302055
MTR12N
METAR K12N 302054Z AUTO 23004KT 24/12 A3002 RMK AO1 SLP162 T02390117
55002





000
SAUS41 KPHI 301955
MTRACY
METAR KACY 301954Z 00000KT 10SM FEW065 27/11 A3002 RMK AO2 SLP166
T02670106





000
SAUS41 KPHI 301955
MTR12N
METAR K12N 301954Z AUTO 23005KT 24/12 A3002 RMK AO1 SLP161 T02390117





000
SAUS41 KPHI 301857
MTRACY
METAR KACY 301854Z VRB04KT 10SM BKN070 26/10 A3003 RMK AO2 SLP168
T02560100





000
SAUS41 KPHI 301855
MTR12N
METAR K12N 301854Z AUTO 22007KT 23/12 A3002 RMK AO1 SLP163 T02330117





000
SAUS41 KPHI 301756
MTRACY
METAR KACY 301754Z 32006KT 10SM FEW070 26/11 A3003 RMK AO2 SLP169
T02610111 10261 20178 58006





000
SAUS41 KPHI 301755
MTR12N
METAR K12N 301754Z AUTO 23009KT 23/11 A3003 RMK AO1 SLP164 T02330106
10239 20128 58009





000
SAUS41 KPHI 301657
MTRACY
METAR KACY 301654Z 25007KT 10SM SCT055 SCT070 24/11 A3004 RMK AO2
SLP172 T02440106





000
SAUS41 KPHI 301656
MTR12N
METAR K12N 301654Z AUTO 23005KT 23/11 A3004 RMK AO1 SLP168 T02280106





000
SAUS41 KPHI 301555
MTRACY
METAR KACY 301554Z 31005KT 10SM CLR 24/12 A3005 RMK AO2 SLP174
T02390117





000
SAUS41 KPHI 301555
MTR12N
METAR K12N 301554Z AUTO 22/11 A3005 RMK AO1 SLP171 T02220111





000
SAUS41 KPHI 301456
MTR12N
METAR K12N 301454Z AUTO 00000KT 22/12 A3005 RMK AO1 SLP173 T02170122
58001





000
SAUS41 KPHI 301455
MTRACY
METAR KACY 301454Z 01004KT 10SM CLR 24/12 A3005 RMK AO2 SLP176
T02390122 51005





000
SAUS41 KPHI 301355
MTRACY
METAR KACY 301354Z 35007KT 10SM CLR 23/12 A3005 RMK AO2 SLP174
T02280122





000
SAUS41 KPHI 301355
MTR12N
METAR K12N 301354Z AUTO 00000KT 19/14 A3006 RMK AO1 SLP177 T01940139





000
SAUS41 KPHI 301255
MTR12N
METAR K12N 301254Z AUTO 00000KT 16/13 A3006 RMK AO1 SLP179 T01560128





000
SAUS41 KPHI 301255
MTRACY
METAR KACY 301254Z 36007KT 10SM CLR 21/13 A3004 RMK AO2 SLP173
T02060128





000
SAUS41 KPHI 301157
MTRACY
METAR KACY 301154Z 10SM FEW070 18/14 A3004 RMK AO2 SLP170 T01780139
10183 20150 51017





000
SAUS41 KPHI 301156
MTR12N
METAR K12N 301154Z AUTO 22003KT 13/12 A3006 RMK AO1 SLP176 T01280122
10128 20094 51015





000
SAUS41 KPHI 301057
MTRACY
METAR KACY 301054Z 33005KT 10SM OVC065 16/14 A3002 RMK AO2 SLP166
T01610139





000
SAUS41 KPHI 301055
MTR12N
METAR K12N 301054Z AUTO 00000KT 11/10 A3004 RMK AO1 SLP171 T01060100





000
SAUS41 KPHI 300955
MTRACY
METAR KACY 300954Z 35003KT 10SM CLR 16/13 A3001 RMK AO2 SLP160
T01560133





000
SAUS41 KPHI 300955
MTR12N
METAR K12N 300954Z AUTO 00000KT 10/09 A3003 RMK AO1 SLP166 T01000094





000
SAUS41 KPHI 300855
MTRACY
METAR KACY 300854Z 32003KT 10SM SCT060 SCT075 16/14 A2998 RMK AO2
SLP153 T01610144 53004





000
SAUS41 KPHI 300855
MTR12N
METAR K12N 300854Z AUTO 00000KT 10/09 A3001 RMK AO1 SLP161 T01000094
53002





000
SAUS41 KPHI 300755
MTR12N
METAR K12N 300754Z AUTO 00000KT 11/10 A3000 RMK AO1 SLP157 T01060100





000
SAUS41 KPHI 300755
MTRACY
METAR KACY 300754Z 31004KT 10SM CLR 16/14 A2997 RMK AO2 SLP148
T01610144





000
SAUS41 KPHI 300657
MTRACY
METAR KACY 300654Z 30003KT 10SM FEW090 17/15 A2996 RMK AO2 SLP144
T01720150





000
SAUS41 KPHI 300655
MTR12N
METAR K12N 300654Z AUTO 00000KT 11/11 A3000 RMK AO1 SLP157 T01110106





000
SAUS41 KPHI 300557
MTRACY
METAR KACY 300554Z 34004KT 10SM FEW060 BKN090 18/16 A2997 RMK AO2
SLP149 T01830156 10222 20183 58002





000
SAUS41 KPHI 300555
MTR12N
METAR K12N 300554Z AUTO 00000KT 12/11 A3001 RMK AO1 SLP157 T01170111
10172 20117 51002





000
SAUS41 KPHI 300456
MTR12N
METAR K12N 300454Z AUTO 00000KT 12/11 A3001 RMK AO1 SLP158 T01170111
402280117





000
SAUS41 KPHI 300456
MTRACY
METAR KACY 300454Z 31003KT 10SM OVC060 19/15 A2998 RMK AO2 SLP152
T01940150 402500156





000
SAUS41 KPHI 300355
MTR12N
METAR K12N 300354Z AUTO 00000KT 13/12 A3001 RMK AO1 SLP158 T01280122





000
SAUS41 KPHI 300355
MTRACY
METAR KACY 300354Z 32003KT 10SM BKN049 OVC085 20/16 A2998 RMK AO2
SLP153 T02000161





000
SAUS41 KPHI 300257
MTRACY
METAR KACY 300254Z 00000KT 10SM SCT048 OVC085 19/16 A2998 RMK AO2
SLP151 T01940156 51011





000
SAUS41 KPHI 300255
MTR12N
METAR K12N 300254Z AUTO 20003KT 13/13 A3000 RMK AO1 SLP157 T01330128
53010





000
SAUS41 KPHI 300155
MTRACY
METAR KACY 300154Z 00000KT 10SM OVC085 20/16 A2997 RMK AO2 SLP149
T02000156





000
SAUS41 KPHI 300155
MTR12N
METAR K12N 300154Z AUTO 00000KT 14/13 A3000 RMK AO1 SLP155 T01390133





000
SAUS41 KPHI 300057
MTRACY
METAR KACY 300054Z 28003KT 10SM BKN075 OVC090 22/14 A2995 RMK AO2
SLP143 T02170144





000
SAUS41 KPHI 300055
MTR12N
METAR K12N 300054Z AUTO 00000KT 16/14 A2998 RMK AO1 SLP148 T01560139





000
SAUS41 KPHI 292355
MTR12N
METAR K12N 292354Z AUTO 00000KT 17/14 A2997 RMK AO1 SLP147 T01720139
10222 20172 53013





000
SAUS41 KPHI 292355
MTRACY
METAR KACY 292354Z 35003KT 10SM BKN065 OVC085 21/15 A2995 RMK AO2
SLP140 T02110150 10250 20211 51012





000
SAUS41 KPHI 292257
MTRACY
METAR KACY 292254Z 30004KT 10SM OVC080 23/13 A2994 RMK AO2 SLP139
T02280128





000
SAUS41 KPHI 292255
MTR12N
METAR K12N 292254Z AUTO 00000KT 21/12 A2996 RMK AO1 SLP143 T02060117





000
SAUS41 KPHI 292157
MTRACY
METAR KACY 292154Z 28004KT 10SM SCT060 OVC085 23/13 A2993 RMK AO2
SLP133 T02330128





000
SAUS41 KPHI 292155
MTR12N
METAR K12N 292154Z AUTO 33004KT 22/11 A2994 RMK AO1 SLP135 T02170111





000
SAUS41 KPHI 292057
MTRACY
METAR KACY 292054Z 29006KT 10SM OVC080 23/13 A2991 RMK AO2 SLP128
T02330133 53006





000
SAUS41 KPHI 292055
MTR12N
METAR K12N 292054Z AUTO 36003KT 21/11 A2993 RMK AO1 SLP133 T02110111
53012





000
SAUS41 KPHI 291956
MTRACY
METAR KACY 291954Z VRB03KT 10SM SCT048 OVC080 24/13 A2991 RMK AO2
SLP126 T02440133





000
SAUS41 KPHI 291955
MTR12N
METAR K12N 291954Z AUTO 00000KT 22/11 A2992 RMK AO1 SLP127 T02170106





000
SAUS41 KPHI 291855
MTR12N
METAR K12N 291854Z AUTO VRB06KT 22/09 A2990 RMK AO1 SLP121 T02170094





000
SAUS41 KPHI 291855
MTRACY
METAR KACY 291854Z VRB06KT 10SM OVC075 24/13 A2990 RMK AO2 SLP124
T02440128





000
SAUS41 KPHI 291755
MTR12N
METAR K12N 291754Z AUTO 28005KT 23/11 A2990 RMK AO1 SLP119 T02280106
10228 20167 55000





000
SAUS41 KPHI 291755
MTRACY
METAR KACY 291754Z 26005KT 10SM FEW049 BKN060 OVC075 24/12 A2989 RMK
AO2 SLP122 T02440122 10250 20183 53001





000
SAUS41 KPHI 291657
MTRACY
METAR KACY 291654Z VRB04KT 10SM FEW045 BKN070 24/13 A2989 RMK AO2
SLP121 T02390128





000
SAUS41 KPHI 291656
MTR12N
METAR K12N 291654Z AUTO VRB04KT 22/11 A2989 RMK AO1 SLP117 T02170106





000
SAUS41 KPHI 291556
MTRACY
METAR KACY 291554Z 32006KT 10SM FEW039 24/13 A2989 RMK AO2 SLP120
T02390133





000
SAUS41 KPHI 291555
MTR12N
METAR K12N 291554Z AUTO VRB03KT 20/11 A2990 RMK AO1 SLP120 T02000106





000
SAUS41 KPHI 291457
MTRACY
METAR KACY 291454Z 31006KT 10SM CLR 23/14 A2989 RMK AO2 SLP120
T02280139 53004





000
SAUS41 KPHI 291455
MTR12N
METAR K12N 291454Z AUTO VRB04KT 19/11 A2990 RMK AO1 SLP119 T01940106
50007





000
SAUS41 KPHI 291357
MTRACY
METAR KACY 291354Z 33009KT 10SM CLR 22/13 A2988 RMK AO2 SLP118
T02170133





000
SAUS41 KPHI 291355
MTR12N
METAR K12N 291354Z AUTO VRB05KT 19/12 A2990 RMK AO1 SLP120 T01890117





000
SAUS41 KPHI 291256
MTR12N
METAR K12N 291254Z AUTO 34005KT 18/12 A2989 RMK AO1 SLP117 T01780122





000
SAUS41 KPHI 291256
MTRACY
METAR KACY 291254Z 31011KT 10SM CLR 20/14 A2988 RMK AO2 SLP116
T02000139





000
SAUS41 KPHI 291157
MTRACY
METAR KACY 291154Z 31009KT 10SM CLR 18/14 A2988 RMK AO2 SLP116
T01830144 10183 20156 51019





000
SAUS41 KPHI 291155
MTR12N
METAR K12N 291154Z AUTO 00000KT 16/13 A2988 RMK AO1 SLP113 70005
T01610133 10167 20122 53016





000
SAUS41 KPHI 291056
MTR12N
METAR K12N 291054Z AUTO 00000KT 13/12 A2986 RMK AO1 SLP109 T01280122





000
SAUS41 KPHI 291055
MTRACY
METAR KACY 291054Z 29004KT 10SM CLR 17/14 A2986 RMK AO2 SLP111
T01670139





000
SAUS41 KPHI 290955
MTR12N
METAR K12N 290954Z AUTO 00000KT 13/12 A2984 RMK AO1 SLP100 T01280117





000
SAUS41 KPHI 290955
MTRACY
METAR KACY 290954Z 28003KT 10SM CLR 16/14 A2984 RMK AO2 SLP104
T01610139





000
SAUS41 KPHI 290855
MTR12N
METAR K12N 290854Z AUTO 00000KT 13/12 A2983 RMK AO1 SLP096 T01330122
53013





000
SAUS41 KPHI 290855
MTRACY
METAR KACY 290854Z 28004KT 10SM CLR 17/13 A2982 RMK AO2 SLP097
T01670133 53015





000
SAUS41 KPHI 290755
MTRACY
METAR KACY 290754Z 30004KT 10SM CLR 17/14 A2980 RMK AO2 SLP091
T01720139





000
SAUS41 KPHI 290755
MTR12N
METAR K12N 290754Z AUTO 34003KT 14/12 A2980 RMK AO1 SLP087 T01390122





000
SAUS41 KPHI 290655
MTRACY
METAR KACY 290654Z 29005KT 10SM CLR 18/15 A2979 RMK AO2 SLP086
T01780150





000
SAUS41 KPHI 290655
MTR12N
METAR K12N 290654Z AUTO VRB04KT 16/12 A2980 RMK AO1 SLP084 T01610117





000
SAUS41 KPHI 290555
MTRACY
METAR KACY 290554Z 30006KT 10SM CLR 18/15 A2977 RMK AO2 SLP082
T01830150 10256 20183 53014





000
SAUS41 KPHI 290555
MTR12N
METAR K12N 290554Z AUTO 35005KT 17/13 A2979 RMK AO1 SLP080 T01670128
10194 20167 53013





000
SAUS41 KPHI 290456
MTRACY
METAR KACY 290454Z 32009KT 10SM CLR 19/15 A2976 RMK AO2 SLP076
T01940150 402940194





000
SAUS41 KPHI 290455
MTR12N
METAR K12N 290454Z AUTO 00000KT 17/13 A2976 RMK AO1 SLP071 T01720133
402610167





000
SAUS41 KPHI 290357
MTRACY
METAR KACY 290354Z 32012KT 10SM BKN080 21/15 A2973 RMK AO2 SLP067
T02110150





000
SAUS41 KPHI 290355
MTR12N
METAR K12N 290354Z AUTO VRB06KT 17/14 A2975 RMK AO1 SLP069 T01720139





000
SAUS41 KPHI 290255
MTRACY
METAR KACY 290254Z 32007KT 10SM FEW110 21/16 A2973 RMK AO2 SLP068
T02060156 51024





000
SAUS41 KPHI 290255
MTR12N
METAR K12N 290254Z AUTO 30003KT 17/14 A2975 RMK AO1 SLP069 T01720139
51030





000
SAUS41 KPHI 290155
MTR12N
METAR K12N 290154Z AUTO VRB03KT 18/14 A2973 RMK AO1 SLP063 T01780144





000
SAUS41 KPHI 290155
MTRACY
METAR KACY 290154Z 29007KT 10SM FEW048 BKN095 23/16 A2973 RMK AO2
SLP065 T02280156





000
SAUS41 KPHI 290055
MTR12N
METAR K12N 290054Z AUTO VRB06KT 19/14 A2969 RMK AO1 SLP050 T01890144





000
SAUS41 KPHI 290055
MTRACY
METAR KACY 290054Z 24007KT 10SM CLR 24/14 A2969 RMK AO2 SLP052
T02440144





000
SAUS41 KPHI 282356
MTRACY
METAR KACY 282354Z 26007KT 10SM SCT100 26/14 A2966 RMK AO2 SLP044
T02560144 10294 20256 53017





000
SAUS41 KPHI 282355
MTR12N
METAR K12N 282354Z AUTO 00000KT 19/16 A2966 RMK AO1 SLP037 60005
T01940161 10261 20183 51030





000
SAUS41 KPHI 282256
MTRACY
METAR KACY 282254Z 28009KT 10SM FEW100 27/14 A2964 RMK AO2 SLP037
T02720139





000
SAUS41 KPHI 282255
MTR12N
METAR K12N 282254Z AUTO 00000KT 19/16 A2964 RMK AO1 SLP030 T01940161





000
SAUS41 KPHI 282155
MTR12N
METAR K12N 282154Z AUTO 00000KT 19/17 A2962 RMK AO1 SLP023 P0005
T01940167





000
SAUS41 KPHI 282155
MTRACY
METAR KACY 282154Z 27012G23KT 10SM FEW060 28/14 A2963 RMK AO2 SLP032
T02830144





000
SAUS41 KPHI 282055
MTR12N
METAR K12N 282054Z AUTO VRB06G15KT 26/16 A2957 RMK AO1 SLP005
T02560161 51007





000
SAUS41 KPHI 282055
MTRACY
METAR KACY 282054Z 25012G19KT 10SM SCT055 BKN070 28/15 A2961 RMK AO2
SLP027 T02780150 53008





000
SAUS41 KPHI 281957
MTRACY
METAR KACY 281954Z 26011G20KT 10SM FEW049 SCT060 BKN095 28/16 A2960
RMK AO2 SLP023 T02780156





000
SAUS41 KPHI 281955
MTR12N
METAR K12N 281954Z AUTO VRB03KT 24/17 A2957 RMK AO1 SLP003 T02440172





000
SAUS41 KPHI 281855
MTRACY
METAR KACY 281854Z 28015G20KT 10SM FEW048 SCT080 SCT110 28/16 A2960
RMK AO2 SLP021 T02780161





000
SAUS41 KPHI 281855
MTR12N
METAR K12N 281854Z AUTO 32007KT 270V100 25/16 A2957 RMK AO1 SLP005
T02500161





000
SAUS41 KPHI 281757
MTRACY
METAR KACY 281754Z 26013KT 240V300 10SM SCT047 28/17 A2959 RMK AO2
SLP019 T02830172 10289 20239 50000





000
SAUS41 KPHI 281755
MTR12N
METAR K12N 281754Z AUTO 22007G19KT 25/16 A2955 RMK AO1 SLP998
T02500161 10256 20200 58005





000
SAUS41 KPHI 281656
MTRACY
METAR KACY 281654Z 26013G21KT 10SM FEW040 SCT047 29/18 A2959 RMK AO2
SLP019 T02890178





000
SAUS41 KPHI 281655
MTR12N
METAR K12N 281654Z AUTO 24008G18KT 200V280 25/17 A2955 RMK AO1
SLP999 T02500167





000
SAUS41 KPHI 281555
MTR12N
METAR K12N 281554Z AUTO 22009G16KT 190V290 23/18 A2956 RMK AO1
SLP003 T02330178





000
SAUS41 KPHI 281555
MTRACY
METAR KACY 281554Z 29013G23KT 10SM FEW038 SCT070 28/19 A2959 RMK AO2
SLP019 T02780189





000
SAUS41 KPHI 281455
MTR12N
METAR K12N 281454Z AUTO 23008KT 200V280 24/18 A2957 RMK AO1 SLP003
T02390183 58003





000
SAUS41 KPHI 281455
MTRACY
METAR KACY 281454Z 27011G20KT 10SM SCT033 27/19 A2959 RMK AO2 PK WND
26026/1421 SLP018 T02720194 53004





000
SAUS41 KPHI 281356
MTRACY
METAR KACY 281354Z 26017G22KT 10SM CLR 27/20 A2958 RMK AO2 SLP015
T02720200





000
SAUS41 KPHI 281355
MTR12N
METAR K12N 281354Z AUTO VRB05KT 21/19 A2958 RMK AO1 SLP007 T02110189





000
SAUS41 KPHI 281255
MTRACY
METAR KACY 281254Z 26013G20KT 10SM CLR 26/22 A2957 RMK AO2 PK WND
24026/1244 SLP014 T02560222





000
SAUS41 KPHI 281255
MTR12N
METAR K12N 281254Z AUTO VRB04KT 20/19 A2957 RMK AO1 SLP008 T02000189





000
SAUS41 KPHI 281157
MTRACY
METAR KACY 281154Z 22009KT 7SM FEW007 24/23 A2958 RMK AO2 SLP014
60063 70063 T02390228 10239 20194 53000





000
SAUS41 KPHI 281155
MTR12N
METAR K12N 281154Z AUTO 21004KT 20/19 A2958 RMK AO1 SLP007 60001
70044 T02000189 10200 20189 53007





000
SAUS41 KPHI 281122
MTRACY
SPECI KACY 281121Z 20007KT 6SM BR SCT016 23/22 A2957 RMK AO2
T02280222





000
SAUS41 KPHI 281103
MTRACY
SPECI KACY 281101Z 19006KT 6SM BR BKN015 22/22 A2957 RMK AO2
T02220217





000
SAUS41 KPHI 281056
MTRACY
METAR KACY 281054Z 19005KT 7SM BKN013 22/22 A2957 RMK AO2 SLP013
T02220217





000
SAUS41 KPHI 281055
MTR12N
METAR K12N 281054Z AUTO 00000KT 20/19 A2956 RMK AO1 SLP000 T02000194





000
SAUS41 KPHI 280955
MTRACY
METAR KACY 280954Z 13004KT 10SM FEW018 SCT025 21/20 A2956 RMK AO2
SLP010 T02110200





000
SAUS41 KPHI 280955
MTR12N
METAR K12N 280954Z AUTO 23004KT 20/19 A2957 RMK AO1 SLP002 T02000194





000
SAUS41 KPHI 280947
MTRACY
SPECI KACY 280944Z 15004KT 10SM FEW022 21/20 A2957 RMK AO2 T02060200





    US Dept of Commerce
    National Oceanic and Atmospheric Administration
    National Weather Service
    1325 East West Highway
    Silver Spring, MD 20910
    Page Author: NWS Internet Services Team
Disclaimer
Information Quality
Credits
Glossary
Privacy Policy
Freedom of Information Act (FOIA)
About Us
Career Opportunities